PWSweather.com
Personal Weather Stations
Station Observations

PoschiavoCH

Lat: 46.31962499999999, Lon: 10.066551000000004

Elevation: 3517

Station Type: WH 1080

http://www.meteoposchiavo.com

High Low Average
Temperature 56.0°F13.3°C 45.0°F7.2°C 48.5°F9.2°C
Dew Point 45.7°F7.6°C 38.6°F3.7°C 42.8°F6.0°C
Winds 3.5 mph 5.6 kmh Calm Calm Calm ESECalm ESE
Wind Gusts 3.5 mph5.6 kmh -- --
Humidity 93% 54% 81%
Pressure 26.41 in894.3 mb 26.34 in892.0 mb -
Precipitation 0.00 in0.0 mm - -
Hour Temp Dew Point Humidity Winds Wind Gusts Pressure Precip Precip Rate Daily Precip Total
12:00 AM 48.0°F8.9°C 41.1°F5.1°C 77% Calm Calm -- 26.41 in894.3 mb - 0.00 in0.0 mm 0.00 in0.0 mm
12:10 AM 48.0°F8.9°C 40.8°F4.9°C 76% Calm Calm -- 26.41 in894.3 mb - 0.00 in0.0 mm 0.00 in0.0 mm
12:15 AM 48.0°F8.9°C 41.1°F5.1°C 77% Calm Calm -- 26.41 in894.3 mb - 0.00 in0.0 mm 0.00 in0.0 mm
12:20 AM 48.0°F8.9°C 41.1°F5.1°C 77% Calm Calm -- 26.41 in894.3 mb - 0.00 in0.0 mm 0.00 in0.0 mm
12:25 AM 48.0°F8.9°C 41.1°F5.1°C 77% Calm Calm -- 26.41 in894.3 mb - 0.00 in0.0 mm 0.00 in0.0 mm
12:30 AM 48.0°F8.9°C 41.1°F5.1°C 77% Calm Calm -- 26.41 in894.3 mb - 0.00 in0.0 mm 0.00 in0.0 mm
12:35 AM 48.0°F8.9°C 40.8°F4.9°C 76% Calm Calm -- 26.41 in894.3 mb - 0.00 in0.0 mm 0.00 in0.0 mm
12:40 AM 48.0°F8.9°C 41.1°F5.1°C 77% Calm Calm -- 26.41 in894.3 mb - 0.00 in0.0 mm 0.00 in0.0 mm
12:45 AM 48.0°F8.9°C 41.1°F5.1°C 77% Calm Calm -- 26.41 in894.3 mb - 0.00 in0.0 mm 0.00 in0.0 mm
12:50 AM 48.0°F8.9°C 41.1°F5.1°C 77% Calm Calm -- 26.40 in894.0 mb - 0.00 in0.0 mm 0.00 in0.0 mm
12:55 AM 48.0°F8.9°C 41.1°F5.1°C 77% Calm Calm -- 26.40 in894.0 mb - 0.00 in0.0 mm 0.00 in0.0 mm
01:00 AM 48.0°F8.9°C 41.5°F5.3°C 78% Calm Calm -- 26.41 in894.3 mb - 0.00 in0.0 mm 0.00 in0.0 mm
01:10 AM 47.0°F8.3°C 40.5°F4.7°C 78% Calm Calm -- 26.41 in894.3 mb - 0.00 in0.0 mm 0.00 in0.0 mm
01:15 AM 47.0°F8.3°C 40.5°F4.7°C 78% Calm Calm -- 26.40 in894.0 mb - 0.00 in0.0 mm 0.00 in0.0 mm
01:20 AM 47.0°F8.3°C 40.8°F4.9°C 79% Calm Calm -- 26.40 in894.0 mb - 0.00 in0.0 mm 0.00 in0.0 mm
01:25 AM 47.0°F8.3°C 40.5°F4.7°C 78% Calm Calm -- 26.41 in894.3 mb - 0.00 in0.0 mm 0.00 in0.0 mm
01:30 AM 47.0°F8.3°C 40.5°F4.7°C 78% Calm Calm -- 26.41 in894.3 mb - 0.00 in0.0 mm 0.00 in0.0 mm
01:35 AM 47.0°F8.3°C 40.5°F4.7°C 78% Calm Calm -- 26.41 in894.3 mb - 0.00 in0.0 mm 0.00 in0.0 mm
01:40 AM 48.0°F8.9°C 41.1°F5.1°C 77% Calm Calm -- 26.40 in894.0 mb - 0.00 in0.0 mm 0.00 in0.0 mm
01:45 AM 48.0°F8.9°C 41.1°F5.1°C 77% Calm Calm -- 26.40 in894.0 mb - 0.00 in0.0 mm 0.00 in0.0 mm
01:50 AM 48.0°F8.9°C 41.5°F5.3°C 78% Calm Calm -- 26.40 in894.0 mb - 0.00 in0.0 mm 0.00 in0.0 mm
01:55 AM 47.0°F8.3°C 40.5°F4.7°C 78% Calm Calm -- 26.39 in893.7 mb - 0.00 in0.0 mm 0.00 in0.0 mm
02:00 AM 47.0°F8.3°C 40.8°F4.9°C 79% Calm Calm -- 26.40 in894.0 mb - 0.00 in0.0 mm 0.00 in0.0 mm
02:10 AM 47.0°F8.3°C 40.5°F4.7°C 78% Calm Calm -- 26.40 in894.0 mb - 0.00 in0.0 mm 0.00 in0.0 mm
02:15 AM 47.0°F8.3°C 40.8°F4.9°C 79% Calm Calm -- 26.40 in894.0 mb - 0.00 in0.0 mm 0.00 in0.0 mm
02:20 AM 47.0°F8.3°C 41.1°F5.1°C 80% Calm Calm -- 26.39 in893.7 mb - 0.00 in0.0 mm 0.00 in0.0 mm
02:25 AM 47.0°F8.3°C 41.8°F5.4°C 82% Calm Calm -- 26.40 in894.0 mb - 0.00 in0.0 mm 0.00 in0.0 mm
02:30 AM 47.0°F8.3°C 41.5°F5.3°C 81% Calm Calm -- 26.39 in893.7 mb - 0.00 in0.0 mm 0.00 in0.0 mm
02:35 AM 47.0°F8.3°C 41.5°F5.3°C 81% Calm Calm -- 26.39 in893.7 mb - 0.00 in0.0 mm 0.00 in0.0 mm
02:40 AM 47.0°F8.3°C 41.1°F5.1°C 80% Calm Calm -- 26.39 in893.7 mb - 0.00 in0.0 mm 0.00 in0.0 mm
02:45 AM 47.0°F8.3°C 41.5°F5.3°C 81% Calm Calm -- 26.39 in893.7 mb - 0.00 in0.0 mm 0.00 in0.0 mm
02:50 AM 47.0°F8.3°C 41.1°F5.1°C 80% Calm Calm -- 26.39 in893.7 mb - 0.00 in0.0 mm 0.00 in0.0 mm
02:55 AM 47.0°F8.3°C 41.5°F5.3°C 81% Calm Calm -- 26.39 in893.7 mb - 0.00 in0.0 mm 0.00 in0.0 mm
03:00 AM 47.0°F8.3°C 41.1°F5.1°C 80% Calm Calm -- 26.39 in893.7 mb - 0.00 in0.0 mm 0.00 in0.0 mm
03:10 AM 47.0°F8.3°C 40.8°F4.9°C 79% Calm Calm -- 26.39 in893.7 mb - 0.00 in0.0 mm 0.00 in0.0 mm
03:15 AM 47.0°F8.3°C 41.1°F5.1°C 80% Calm Calm -- 26.39 in893.7 mb - 0.00 in0.0 mm 0.00 in0.0 mm
03:20 AM 47.0°F8.3°C 41.5°F5.3°C 81% Calm Calm -- 26.39 in893.7 mb - 0.00 in0.0 mm 0.00 in0.0 mm
03:25 AM 46.0°F7.8°C 40.8°F4.9°C 82% Calm Calm -- 26.39 in893.7 mb - 0.00 in0.0 mm 0.00 in0.0 mm
03:30 AM 47.0°F8.3°C 41.5°F5.3°C 81% Calm Calm -- 26.38 in893.3 mb - 0.00 in0.0 mm 0.00 in0.0 mm
03:35 AM 47.0°F8.3°C 41.5°F5.3°C 81% Calm Calm -- 26.38 in893.3 mb - 0.00 in0.0 mm 0.00 in0.0 mm
03:40 AM 46.3°F7.9°C 40.8°F4.9°C 81% Calm Calm -- 26.39 in893.7 mb - 0.00 in0.0 mm 0.00 in0.0 mm
03:45 AM 46.0°F7.8°C 40.5°F4.7°C 81% Calm Calm -- 26.39 in893.7 mb - 0.00 in0.0 mm 0.00 in0.0 mm
03:50 AM 46.0°F7.8°C 40.8°F4.9°C 82% Calm Calm -- 26.38 in893.3 mb - 0.00 in0.0 mm 0.00 in0.0 mm
03:55 AM 46.0°F7.8°C 40.8°F4.9°C 82% Calm Calm -- 26.39 in893.7 mb - 0.00 in0.0 mm 0.00 in0.0 mm
04:00 AM 46.0°F7.8°C 40.5°F4.7°C 81% Calm Calm -- 26.39 in893.7 mb - 0.00 in0.0 mm 0.00 in0.0 mm
04:10 AM 46.0°F7.8°C 40.8°F4.9°C 82% Calm Calm -- 26.39 in893.7 mb - 0.00 in0.0 mm 0.00 in0.0 mm
04:15 AM 46.0°F7.8°C 41.1°F5.1°C 83% Calm Calm -- 26.38 in893.3 mb - 0.00 in0.0 mm 0.00 in0.0 mm
04:20 AM 46.0°F7.8°C 41.1°F5.1°C 83% Calm Calm -- 26.38 in893.3 mb - 0.00 in0.0 mm 0.00 in0.0 mm
04:25 AM 46.0°F7.8°C 40.8°F4.9°C 82% Calm Calm -- 26.39 in893.7 mb - 0.00 in0.0 mm 0.00 in0.0 mm
04:30 AM 46.0°F7.8°C 40.5°F4.7°C 81% Calm Calm -- 26.38 in893.3 mb - 0.00 in0.0 mm 0.00 in0.0 mm
04:35 AM 46.0°F7.8°C 41.1°F5.1°C 83% Calm Calm -- 26.38 in893.3 mb - 0.00 in0.0 mm 0.00 in0.0 mm
04:40 AM 46.0°F7.8°C 41.1°F5.1°C 83% Calm Calm -- 26.38 in893.3 mb - 0.00 in0.0 mm 0.00 in0.0 mm
04:45 AM 46.0°F7.8°C 41.1°F5.1°C 83% Calm Calm -- 26.39 in893.7 mb - 0.00 in0.0 mm 0.00 in0.0 mm
04:50 AM 46.0°F7.8°C 41.1°F5.1°C 83% Calm Calm -- 26.39 in893.7 mb - 0.00 in0.0 mm 0.00 in0.0 mm
04:55 AM 46.0°F7.8°C 41.7°F5.4°C 85% Calm Calm -- 26.39 in893.7 mb - 0.00 in0.0 mm 0.00 in0.0 mm
05:00 AM 46.0°F7.8°C 42.0°F5.6°C 86% Calm Calm -- 26.39 in893.7 mb - 0.00 in0.0 mm 0.00 in0.0 mm
05:10 AM 46.0°F7.8°C 42.0°F5.6°C 86% Calm Calm -- 26.39 in893.7 mb - 0.00 in0.0 mm 0.00 in0.0 mm
05:15 AM 46.0°F7.8°C 42.0°F5.6°C 86% Calm Calm -- 26.39 in893.7 mb - 0.00 in0.0 mm 0.00 in0.0 mm
05:20 AM 46.0°F7.8°C 42.0°F5.6°C 86% Calm Calm -- 26.39 in893.7 mb - 0.00 in0.0 mm 0.00 in0.0 mm
05:25 AM 46.0°F7.8°C 42.0°F5.6°C 86% Calm Calm -- 26.39 in893.7 mb - 0.00 in0.0 mm 0.00 in0.0 mm
05:30 AM 46.0°F7.8°C 42.3°F5.7°C 87% Calm Calm -- 26.40 in894.0 mb - 0.00 in0.0 mm 0.00 in0.0 mm
05:35 AM 46.0°F7.8°C 42.0°F5.6°C 86% Calm Calm -- 26.39 in893.7 mb - 0.00 in0.0 mm 0.00 in0.0 mm
05:40 AM 46.0°F7.8°C 42.0°F5.6°C 86% Calm Calm -- 26.39 in893.7 mb - 0.00 in0.0 mm 0.00 in0.0 mm
05:45 AM 46.0°F7.8°C 42.3°F5.7°C 87% Calm Calm -- 26.40 in894.0 mb - 0.00 in0.0 mm 0.00 in0.0 mm
05:50 AM 46.0°F7.8°C 42.3°F5.7°C 87% Calm Calm -- 26.40 in894.0 mb - 0.00 in0.0 mm 0.00 in0.0 mm
05:55 AM 46.0°F7.8°C 42.3°F5.7°C 87% Calm Calm -- 26.39 in893.7 mb - 0.00 in0.0 mm 0.00 in0.0 mm
06:00 AM 46.0°F7.8°C 42.3°F5.7°C 87% Calm Calm -- 26.39 in893.7 mb - 0.00 in0.0 mm 0.00 in0.0 mm
06:10 AM 46.0°F7.8°C 42.6°F5.9°C 88% Calm Calm -- 26.39 in893.7 mb - 0.00 in0.0 mm 0.00 in0.0 mm
06:15 AM 45.2°F7.3°C 41.9°F5.5°C 88% Calm Calm -- 26.39 in893.7 mb - 0.00 in0.0 mm 0.00 in0.0 mm
06:20 AM 45.0°F7.2°C 41.7°F5.4°C 88% Calm Calm -- 26.39 in893.7 mb - 0.00 in0.0 mm 0.00 in0.0 mm
06:25 AM 46.0°F7.8°C 42.6°F5.9°C 88% Calm Calm -- 26.40 in894.0 mb - 0.00 in0.0 mm 0.00 in0.0 mm
06:30 AM 46.0°F7.8°C 42.3°F5.7°C 87% Calm Calm -- 26.39 in893.7 mb - 0.00 in0.0 mm 0.00 in0.0 mm
06:35 AM 46.0°F7.8°C 42.6°F5.9°C 88% Calm Calm -- 26.39 in893.7 mb - 0.00 in0.0 mm 0.00 in0.0 mm
06:40 AM 46.0°F7.8°C 42.3°F5.7°C 87% Calm Calm -- 26.39 in893.7 mb - 0.00 in0.0 mm 0.00 in0.0 mm
06:45 AM 46.0°F7.8°C 42.3°F5.7°C 87% Calm Calm -- 26.39 in893.7 mb - 0.00 in0.0 mm 0.00 in0.0 mm
06:50 AM 46.0°F7.8°C 42.3°F5.7°C 87% Calm Calm -- 26.39 in893.7 mb - 0.00 in0.0 mm 0.00 in0.0 mm
06:55 AM 46.0°F7.8°C 42.6°F5.9°C 88% Calm Calm -- 26.39 in893.7 mb - 0.00 in0.0 mm 0.00 in0.0 mm
07:00 AM 46.0°F7.8°C 42.3°F5.7°C 87% Calm Calm -- 26.39 in893.7 mb - 0.00 in0.0 mm 0.00 in0.0 mm
07:10 AM 46.0°F7.8°C 42.6°F5.9°C 88% Calm Calm -- 26.39 in893.7 mb - 0.00 in0.0 mm 0.00 in0.0 mm
07:15 AM 46.0°F7.8°C 42.3°F5.7°C 87% Calm Calm -- 26.40 in894.0 mb - 0.00 in0.0 mm 0.00 in0.0 mm
07:20 AM 46.0°F7.8°C 42.3°F5.7°C 87% Calm Calm -- 26.40 in894.0 mb - 0.00 in0.0 mm 0.00 in0.0 mm
07:25 AM 46.0°F7.8°C 42.3°F5.7°C 87% Calm Calm -- 26.40 in894.0 mb - 0.00 in0.0 mm 0.00 in0.0 mm
07:30 AM 46.0°F7.8°C 42.3°F5.7°C 87% Calm Calm -- 26.40 in894.0 mb - 0.00 in0.0 mm 0.00 in0.0 mm
07:35 AM 46.0°F7.8°C 42.0°F5.6°C 86% Calm Calm -- 26.40 in894.0 mb - 0.00 in0.0 mm 0.00 in0.0 mm
07:40 AM 47.0°F8.3°C 42.7°F5.9°C 85% Calm Calm -- 26.40 in894.0 mb - 0.00 in0.0 mm 0.00 in0.0 mm
07:45 AM 47.0°F8.3°C 42.7°F5.9°C 85% Calm Calm -- 26.40 in894.0 mb - 0.00 in0.0 mm 0.00 in0.0 mm
07:50 AM 47.0°F8.3°C 42.7°F5.9°C 85% Calm Calm -- 26.39 in893.7 mb - 0.00 in0.0 mm 0.00 in0.0 mm
07:55 AM 48.0°F8.9°C 43.1°F6.2°C 83% Calm Calm -- 26.39 in893.7 mb - 0.00 in0.0 mm 0.00 in0.0 mm
08:00 AM 48.0°F8.9°C 43.1°F6.2°C 83% Calm Calm -- 26.39 in893.7 mb - 0.00 in0.0 mm 0.00 in0.0 mm
08:10 AM 48.0°F8.9°C 42.8°F6.0°C 82% Calm Calm -- 26.39 in893.7 mb - 0.00 in0.0 mm 0.00 in0.0 mm
08:15 AM 49.0°F9.4°C 43.1°F6.2°C 80% Calm Calm -- 26.39 in893.7 mb - 0.00 in0.0 mm 0.00 in0.0 mm
08:20 AM 49.0°F9.4°C 42.8°F6.0°C 79% Calm Calm -- 26.38 in893.3 mb - 0.00 in0.0 mm 0.00 in0.0 mm
08:25 AM 50.0°F10.0°C 43.1°F6.2°C 77% Calm Calm 1.2 mph1.9 kmh 26.39 in893.7 mb - 0.00 in0.0 mm 0.00 in0.0 mm
08:30 AM 50.0°F10.0°C 43.1°F6.2°C 77% Calm Calm 1.2 mph1.9 kmh 26.38 in893.3 mb - 0.00 in0.0 mm 0.00 in0.0 mm
08:35 AM 50.0°F10.0°C 43.1°F6.2°C 77% Calm Calm -- 26.38 in893.3 mb - 0.00 in0.0 mm 0.00 in0.0 mm
08:40 AM 50.0°F10.0°C 42.7°F5.9°C 76% Calm Calm -- 26.38 in893.3 mb - 0.00 in0.0 mm 0.00 in0.0 mm
08:45 AM 51.0°F10.6°C 43.0°F6.1°C 74% 1.2 mph S1.9 kmh S 1.2 mph1.9 kmh 26.38 in893.3 mb - 0.00 in0.0 mm 0.00 in0.0 mm
08:50 AM 52.0°F11.1°C 44.0°F6.7°C 74% Calm Calm -- 26.37 in893.0 mb - 0.00 in0.0 mm 0.00 in0.0 mm
08:55 AM 53.0°F11.7°C 44.2°F6.8°C 72% Calm Calm -- 26.37 in893.0 mb - 0.00 in0.0 mm 0.00 in0.0 mm
09:00 AM 53.0°F11.7°C 44.2°F6.8°C 72% Calm Calm -- 26.37 in893.0 mb - 0.00 in0.0 mm 0.00 in0.0 mm
09:10 AM 50.0°F10.0°C 42.0°F5.6°C 74% 1.2 mph WSW1.9 kmh WSW 1.2 mph1.9 kmh 26.37 in893.0 mb - 0.00 in0.0 mm 0.00 in0.0 mm
09:15 AM 51.0°F10.6°C 42.6°F5.9°C 73% Calm Calm -- 26.37 in893.0 mb - 0.00 in0.0 mm 0.00 in0.0 mm
09:20 AM 52.0°F11.1°C 44.0°F6.7°C 74% Calm Calm -- 26.37 in893.0 mb - 0.00 in0.0 mm 0.00 in0.0 mm
09:25 AM 52.0°F11.1°C 42.5°F5.8°C 70% Calm Calm -- 26.36 in892.7 mb - 0.00 in0.0 mm 0.00 in0.0 mm
09:30 AM 52.3°F11.3°C 42.4°F5.8°C 69% Calm Calm -- 26.36 in892.7 mb - 0.00 in0.0 mm 0.00 in0.0 mm
09:35 AM 53.0°F11.7°C 42.3°F5.7°C 67% Calm Calm -- 26.37 in893.0 mb - 0.00 in0.0 mm 0.00 in0.0 mm
09:40 AM 53.0°F11.7°C 41.5°F5.3°C 65% Calm Calm -- 26.37 in893.0 mb - 0.00 in0.0 mm 0.00 in0.0 mm
09:45 AM 54.0°F12.2°C 42.5°F5.8°C 65% Calm Calm -- 26.37 in893.0 mb - 0.00 in0.0 mm 0.00 in0.0 mm
09:50 AM 54.0°F12.2°C 42.1°F5.6°C 64% Calm Calm -- 26.36 in892.7 mb - 0.00 in0.0 mm 0.00 in0.0 mm
09:55 AM 53.0°F11.7°C 43.1°F6.2°C 69% Calm Calm -- 26.37 in893.0 mb - 0.00 in0.0 mm 0.00 in0.0 mm
10:00 AM 53.0°F11.7°C 43.1°F6.2°C 69% Calm Calm -- 26.37 in893.0 mb - 0.00 in0.0 mm 0.00 in0.0 mm
10:10 AM 52.0°F11.1°C 43.6°F6.4°C 73% Calm Calm -- 26.37 in893.0 mb - 0.00 in0.0 mm 0.00 in0.0 mm
10:15 AM 51.0°F10.6°C 43.0°F6.1°C 74% Calm Calm -- 26.37 in893.0 mb - 0.00 in0.0 mm 0.00 in0.0 mm
10:20 AM 51.0°F10.6°C 43.0°F6.1°C 74% Calm Calm -- 26.37 in893.0 mb - 0.00 in0.0 mm 0.00 in0.0 mm
10:25 AM 52.0°F11.1°C 44.3°F6.8°C 75% Calm Calm -- 26.37 in893.0 mb - 0.00 in0.0 mm 0.00 in0.0 mm
10:30 AM 52.0°F11.1°C 44.3°F6.8°C 75% Calm Calm 1.2 mph1.9 kmh 26.37 in893.0 mb - 0.00 in0.0 mm 0.00 in0.0 mm
10:35 AM 52.0°F11.1°C 44.0°F6.7°C 74% Calm Calm 1.2 mph1.9 kmh 26.36 in892.7 mb - 0.00 in0.0 mm 0.00 in0.0 mm
10:40 AM 52.0°F11.1°C 43.3°F6.3°C 72% Calm Calm -- 26.36 in892.7 mb - 0.00 in0.0 mm 0.00 in0.0 mm
10:45 AM 53.0°F11.7°C 43.5°F6.4°C 70% Calm Calm -- 26.36 in892.7 mb - 0.00 in0.0 mm 0.00 in0.0 mm
10:50 AM 55.0°F12.8°C 45.4°F7.4°C 70% Calm Calm -- 26.35 in892.3 mb - 0.00 in0.0 mm 0.00 in0.0 mm
10:55 AM 56.0°F13.3°C 43.6°F6.4°C 63% Calm Calm -- 26.36 in892.7 mb - 0.00 in0.0 mm 0.00 in0.0 mm
11:00 AM 56.0°F13.3°C 43.2°F6.2°C 62% Calm Calm -- 26.36 in892.7 mb - 0.00 in0.0 mm 0.00 in0.0 mm
11:10 AM 56.0°F13.3°C 40.5°F4.7°C 56% Calm Calm 1.2 mph1.9 kmh 26.35 in892.3 mb - 0.00 in0.0 mm 0.00 in0.0 mm
11:15 AM 55.0°F12.8°C 38.6°F3.7°C 54% Calm Calm -- 26.34 in892.0 mb - 0.00 in0.0 mm 0.00 in0.0 mm
11:20 AM 55.0°F12.8°C 41.8°F5.4°C 61% Calm Calm 1.2 mph1.9 kmh 26.35 in892.3 mb - 0.00 in0.0 mm 0.00 in0.0 mm
11:25 AM 54.0°F12.2°C 44.1°F6.7°C 69% Calm Calm -- 26.35 in892.3 mb - 0.00 in0.0 mm 0.00 in0.0 mm
11:30 AM 53.7°F12.1°C 43.8°F6.6°C 69% Calm Calm 1.2 mph1.9 kmh 26.35 in892.3 mb - 0.00 in0.0 mm 0.00 in0.0 mm
11:35 AM 53.0°F11.7°C 43.1°F6.2°C 69% Calm Calm 1.2 mph1.9 kmh 26.36 in892.7 mb - 0.00 in0.0 mm 0.00 in0.0 mm
11:40 AM 52.0°F11.1°C 42.9°F6.1°C 71% 1.2 mph NW1.9 kmh NW 2.3 mph3.7 kmh 26.36 in892.7 mb - 0.00 in0.0 mm 0.00 in0.0 mm
11:45 AM 52.0°F11.1°C 42.9°F6.1°C 71% 1.2 mph W1.9 kmh W 1.2 mph1.9 kmh 26.36 in892.7 mb - 0.00 in0.0 mm 0.00 in0.0 mm
11:50 AM 51.0°F10.6°C 42.6°F5.9°C 73% 1.2 mph NW1.9 kmh NW 1.2 mph1.9 kmh 26.36 in892.7 mb - 0.00 in0.0 mm 0.00 in0.0 mm
11:55 AM 51.0°F10.6°C 42.3°F5.7°C 72% Calm Calm 1.2 mph1.9 kmh 26.36 in892.7 mb - 0.00 in0.0 mm 0.00 in0.0 mm
12:00 PM 51.2°F10.7°C 42.5°F5.8°C 72% Calm Calm 1.2 mph1.9 kmh 26.36 in892.7 mb - 0.00 in0.0 mm 0.00 in0.0 mm
12:10 PM 52.0°F11.1°C 44.0°F6.7°C 74% Calm Calm -- 26.36 in892.7 mb - 0.00 in0.0 mm 0.00 in0.0 mm
12:15 PM 51.0°F10.6°C 43.0°F6.1°C 74% Calm Calm -- 26.35 in892.3 mb - 0.00 in0.0 mm 0.00 in0.0 mm
12:20 PM 52.0°F11.1°C 44.3°F6.8°C 75% 1.2 mph NNE1.9 kmh NNE 1.2 mph1.9 kmh 26.36 in892.7 mb - 0.00 in0.0 mm 0.00 in0.0 mm
12:25 PM 52.0°F11.1°C 44.3°F6.8°C 75% 1.2 mph N1.9 kmh N 1.2 mph1.9 kmh 26.35 in892.3 mb - 0.00 in0.0 mm 0.00 in0.0 mm
12:30 PM 52.3°F11.3°C 44.6°F7.0°C 75% 1.2 mph NW1.9 kmh NW 3.5 mph5.6 kmh 26.35 in892.3 mb - 0.00 in0.0 mm 0.00 in0.0 mm
12:35 PM 53.0°F11.7°C 45.6°F7.6°C 76% 2.3 mph W3.7 kmh W 3.5 mph5.6 kmh 26.36 in892.7 mb - 0.00 in0.0 mm 0.00 in0.0 mm
12:40 PM 53.0°F11.7°C 44.9°F7.2°C 74% 1.2 mph N1.9 kmh N 1.2 mph1.9 kmh 26.36 in892.7 mb - 0.00 in0.0 mm 0.00 in0.0 mm
12:45 PM 53.0°F11.7°C 43.8°F6.6°C 71% 1.2 mph WNW1.9 kmh WNW 1.2 mph1.9 kmh 26.36 in892.7 mb - 0.00 in0.0 mm 0.00 in0.0 mm
12:50 PM 53.0°F11.7°C 44.6°F7.0°C 73% 3.5 mph NNW5.6 kmh NNW 3.5 mph5.6 kmh 26.35 in892.3 mb - 0.00 in0.0 mm 0.00 in0.0 mm
12:55 PM 51.0°F10.6°C 44.0°F6.7°C 77% 1.2 mph NE1.9 kmh NE 1.2 mph1.9 kmh 26.36 in892.7 mb - 0.00 in0.0 mm 0.00 in0.0 mm
01:00 PM 51.0°F10.6°C 44.0°F6.7°C 77% 1.2 mph NNE1.9 kmh NNE 1.2 mph1.9 kmh 26.36 in892.7 mb - 0.00 in0.0 mm 0.00 in0.0 mm
01:10 PM 51.0°F10.6°C 44.0°F6.7°C 77% 1.2 mph NNE1.9 kmh NNE 2.3 mph3.7 kmh 26.35 in892.3 mb - 0.00 in0.0 mm 0.00 in0.0 mm
01:15 PM 51.0°F10.6°C 43.7°F6.5°C 76% 1.2 mph NNE1.9 kmh NNE 1.2 mph1.9 kmh 26.36 in892.7 mb - 0.00 in0.0 mm 0.00 in0.0 mm
01:20 PM 51.0°F10.6°C 43.7°F6.5°C 76% Calm Calm -- 26.36 in892.7 mb - 0.00 in0.0 mm 0.00 in0.0 mm
01:25 PM 52.0°F11.1°C 44.0°F6.7°C 74% 1.2 mph NE1.9 kmh NE 1.2 mph1.9 kmh 26.36 in892.7 mb - 0.00 in0.0 mm 0.00 in0.0 mm
01:30 PM 51.8°F11.0°C 43.8°F6.6°C 74% 1.2 mph NE1.9 kmh NE 1.2 mph1.9 kmh 26.36 in892.7 mb - 0.00 in0.0 mm 0.00 in0.0 mm
01:35 PM 51.0°F10.6°C 43.0°F6.1°C 74% Calm Calm 1.2 mph1.9 kmh 26.36 in892.7 mb - 0.00 in0.0 mm 0.00 in0.0 mm
01:40 PM 52.0°F11.1°C 42.9°F6.1°C 71% Calm Calm 1.2 mph1.9 kmh 26.35 in892.3 mb - 0.00 in0.0 mm 0.00 in0.0 mm
01:45 PM 53.0°F11.7°C 43.8°F6.6°C 71% Calm Calm 1.2 mph1.9 kmh 26.35 in892.3 mb - 0.00 in0.0 mm 0.00 in0.0 mm
01:50 PM 53.0°F11.7°C 43.5°F6.4°C 70% Calm Calm 1.2 mph1.9 kmh 26.35 in892.3 mb - 0.00 in0.0 mm 0.00 in0.0 mm
01:55 PM 53.0°F11.7°C 41.9°F5.5°C 66% 2.3 mph ESE3.7 kmh ESE 3.5 mph5.6 kmh 26.35 in892.3 mb - 0.00 in0.0 mm 0.00 in0.0 mm
02:00 PM 53.0°F11.7°C 42.3°F5.7°C 67% 2.3 mph ESE3.7 kmh ESE 3.5 mph5.6 kmh 26.35 in892.3 mb - 0.00 in0.0 mm 0.00 in0.0 mm
02:10 PM 52.0°F11.1°C 42.9°F6.1°C 71% Calm Calm 1.2 mph1.9 kmh 26.35 in892.3 mb - 0.00 in0.0 mm 0.00 in0.0 mm
02:15 PM 52.0°F11.1°C 43.3°F6.3°C 72% 1.2 mph WNW1.9 kmh WNW 1.2 mph1.9 kmh 26.36 in892.7 mb - 0.00 in0.0 mm 0.00 in0.0 mm
02:20 PM 52.0°F11.1°C 42.9°F6.1°C 71% 1.2 mph ENE1.9 kmh ENE 1.2 mph1.9 kmh 26.36 in892.7 mb - 0.00 in0.0 mm 0.00 in0.0 mm
02:25 PM 52.0°F11.1°C 43.6°F6.4°C 73% 2.3 mph SE3.7 kmh SE 3.5 mph5.6 kmh 26.35 in892.3 mb - 0.00 in0.0 mm 0.00 in0.0 mm
02:30 PM 51.8°F11.0°C 43.4°F6.3°C 73% 2.3 mph SSE3.7 kmh SSE 3.5 mph5.6 kmh 26.35 in892.3 mb - 0.00 in0.0 mm 0.00 in0.0 mm
02:35 PM 51.0°F10.6°C 43.0°F6.1°C 74% 2.3 mph WSW3.7 kmh WSW 2.3 mph3.7 kmh 26.36 in892.7 mb - 0.00 in0.0 mm 0.00 in0.0 mm
02:40 PM 51.0°F10.6°C 43.4°F6.3°C 75% 1.2 mph W1.9 kmh W 2.3 mph3.7 kmh 26.36 in892.7 mb - 0.00 in0.0 mm 0.00 in0.0 mm
02:45 PM 51.0°F10.6°C 44.4°F6.9°C 78% Calm Calm -- 26.35 in892.3 mb - 0.00 in0.0 mm 0.00 in0.0 mm
02:50 PM 51.0°F10.6°C 45.0°F7.2°C 80% 2.3 mph WNW3.7 kmh WNW 2.3 mph3.7 kmh 26.36 in892.7 mb - 0.00 in0.0 mm 0.00 in0.0 mm
02:55 PM 51.0°F10.6°C 45.7°F7.6°C 82% Calm Calm 2.3 mph3.7 kmh 26.36 in892.7 mb - 0.00 in0.0 mm 0.00 in0.0 mm
03:00 PM 51.0°F10.6°C 45.7°F7.6°C 82% Calm Calm 3.5 mph5.6 kmh 26.36 in892.7 mb - 0.00 in0.0 mm 0.00 in0.0 mm
03:10 PM 50.0°F10.0°C 44.4°F6.9°C 81% 1.2 mph NNW1.9 kmh NNW 1.2 mph1.9 kmh 26.36 in892.7 mb - 0.00 in0.0 mm 0.00 in0.0 mm
03:15 PM 50.0°F10.0°C 45.0°F7.2°C 83% Calm Calm -- 26.36 in892.7 mb - 0.00 in0.0 mm 0.00 in0.0 mm
03:20 PM 50.0°F10.0°C 43.7°F6.5°C 79% 1.2 mph NNE1.9 kmh NNE 2.3 mph3.7 kmh 26.36 in892.7 mb - 0.00 in0.0 mm 0.00 in0.0 mm
03:25 PM 50.0°F10.0°C 44.1°F6.7°C 80% Calm Calm 2.3 mph3.7 kmh 26.36 in892.7 mb - 0.00 in0.0 mm 0.00 in0.0 mm
03:30 PM 50.0°F10.0°C 44.1°F6.7°C 80% Calm Calm 1.2 mph1.9 kmh 26.36 in892.7 mb - 0.00 in0.0 mm 0.00 in0.0 mm
03:35 PM 50.0°F10.0°C 44.1°F6.7°C 80% Calm Calm 1.2 mph1.9 kmh 26.36 in892.7 mb - 0.00 in0.0 mm 0.00 in0.0 mm
03:40 PM 50.0°F10.0°C 43.7°F6.5°C 79% 1.2 mph NE1.9 kmh NE 2.3 mph3.7 kmh 26.37 in893.0 mb - 0.00 in0.0 mm 0.00 in0.0 mm
03:45 PM 49.0°F9.4°C 43.4°F6.3°C 81% 1.2 mph W1.9 kmh W 2.3 mph3.7 kmh 26.37 in893.0 mb - 0.00 in0.0 mm 0.00 in0.0 mm
03:50 PM 49.0°F9.4°C 43.4°F6.3°C 81% 1.2 mph NNW1.9 kmh NNW 2.3 mph3.7 kmh 26.36 in892.7 mb - 0.00 in0.0 mm 0.00 in0.0 mm
03:55 PM 49.0°F9.4°C 43.4°F6.3°C 81% 2.3 mph W3.7 kmh W 3.5 mph5.6 kmh 26.36 in892.7 mb - 0.00 in0.0 mm 0.00 in0.0 mm
04:00 PM 49.1°F9.5°C 43.5°F6.4°C 81% 2.3 mph W3.7 kmh W 3.5 mph5.6 kmh 26.36 in892.7 mb - 0.00 in0.0 mm 0.00 in0.0 mm
04:10 PM 49.0°F9.4°C 43.1°F6.2°C 80% Calm Calm 1.2 mph1.9 kmh 26.37 in893.0 mb - 0.00 in0.0 mm 0.00 in0.0 mm
04:15 PM 50.0°F10.0°C 44.4°F6.9°C 81% Calm Calm -- 26.36 in892.7 mb - 0.00 in0.0 mm 0.00 in0.0 mm
04:20 PM 49.0°F9.4°C 42.8°F6.0°C 79% 1.2 mph E1.9 kmh E 2.3 mph3.7 kmh 26.38 in893.3 mb - 0.00 in0.0 mm 0.00 in0.0 mm
04:25 PM 50.0°F10.0°C 44.0°F6.7°C 80% 1.2 mph SSW1.9 kmh SSW 2.3 mph3.7 kmh 26.37 in893.0 mb - 0.00 in0.0 mm 0.00 in0.0 mm
04:30 PM 49.9°F9.9°C 43.9°F6.6°C 80% 1.2 mph SSW1.9 kmh SSW 1.2 mph1.9 kmh 26.37 in893.0 mb - 0.00 in0.0 mm 0.00 in0.0 mm
04:35 PM 49.0°F9.4°C 43.4°F6.3°C 81% Calm Calm -- 26.37 in893.0 mb - 0.00 in0.0 mm 0.00 in0.0 mm
04:40 PM 49.0°F9.4°C 42.8°F6.0°C 79% 1.2 mph N1.9 kmh N 1.2 mph1.9 kmh 26.37 in893.0 mb - 0.00 in0.0 mm 0.00 in0.0 mm
04:45 PM 49.0°F9.4°C 42.8°F6.0°C 79% Calm Calm 1.2 mph1.9 kmh 26.37 in893.0 mb - 0.00 in0.0 mm 0.00 in0.0 mm
04:50 PM 49.0°F9.4°C 43.1°F6.2°C 80% Calm Calm -- 26.37 in893.0 mb - 0.00 in0.0 mm 0.00 in0.0 mm
04:55 PM 49.0°F9.4°C 43.7°F6.5°C 82% Calm Calm -- 26.37 in893.0 mb - 0.00 in0.0 mm 0.00 in0.0 mm
05:00 PM 49.0°F9.4°C 43.7°F6.5°C 82% Calm Calm 2.3 mph3.7 kmh 26.37 in893.0 mb - 0.00 in0.0 mm 0.00 in0.0 mm
05:10 PM 49.0°F9.4°C 43.4°F6.3°C 81% Calm Calm -- 26.37 in893.0 mb - 0.00 in0.0 mm 0.00 in0.0 mm
05:15 PM 48.0°F8.9°C 43.1°F6.2°C 83% Calm Calm -- 26.36 in892.7 mb - 0.00 in0.0 mm 0.00 in0.0 mm
05:20 PM 48.0°F8.9°C 43.7°F6.5°C 85% Calm Calm -- 26.37 in893.0 mb - 0.00 in0.0 mm 0.00 in0.0 mm
05:25 PM 48.0°F8.9°C 43.4°F6.3°C 84% 1.2 mph NNE1.9 kmh NNE 1.2 mph1.9 kmh 26.37 in893.0 mb - 0.00 in0.0 mm 0.00 in0.0 mm
05:30 PM 48.0°F8.9°C 43.4°F6.3°C 84% 1.2 mph N1.9 kmh N 1.2 mph1.9 kmh 26.37 in893.0 mb - 0.00 in0.0 mm 0.00 in0.0 mm
05:35 PM 48.0°F8.9°C 43.7°F6.5°C 85% Calm Calm -- 26.37 in893.0 mb - 0.00 in0.0 mm 0.00 in0.0 mm
05:40 PM 48.0°F8.9°C 42.8°F6.0°C 82% Calm Calm -- 26.37 in893.0 mb - 0.00 in0.0 mm 0.00 in0.0 mm
05:45 PM 48.0°F8.9°C 43.4°F6.3°C 84% Calm Calm -- 26.37 in893.0 mb - 0.00 in0.0 mm 0.00 in0.0 mm
05:50 PM 48.0°F8.9°C 43.1°F6.2°C 83% Calm Calm -- 26.37 in893.0 mb - 0.00 in0.0 mm 0.00 in0.0 mm
05:55 PM 48.0°F8.9°C 42.8°F6.0°C 82% Calm Calm -- 26.37 in893.0 mb - 0.00 in0.0 mm 0.00 in0.0 mm
06:00 PM 48.0°F8.9°C 43.4°F6.3°C 84% Calm Calm -- 26.37 in893.0 mb - 0.00 in0.0 mm 0.00 in0.0 mm
06:10 PM 48.0°F8.9°C 43.7°F6.5°C 85% Calm Calm -- 26.37 in893.0 mb - 0.00 in0.0 mm 0.00 in0.0 mm
06:15 PM 48.0°F8.9°C 44.3°F6.8°C 87% Calm Calm -- 26.36 in892.7 mb - 0.00 in0.0 mm 0.00 in0.0 mm
06:20 PM 48.0°F8.9°C 44.3°F6.8°C 87% Calm Calm -- 26.36 in892.7 mb - 0.00 in0.0 mm 0.00 in0.0 mm
06:25 PM 48.0°F8.9°C 43.7°F6.5°C 85% Calm Calm -- 26.37 in893.0 mb - 0.00 in0.0 mm 0.00 in0.0 mm
06:30 PM 49.0°F9.4°C 43.7°F6.5°C 82% Calm Calm -- 26.37 in893.0 mb - 0.00 in0.0 mm 0.00 in0.0 mm
06:35 PM 49.0°F9.4°C 44.7°F7.1°C 85% Calm Calm -- 26.37 in893.0 mb - 0.00 in0.0 mm 0.00 in0.0 mm
06:40 PM 48.2°F9.0°C 44.2°F6.8°C 86% Calm Calm -- 26.36 in892.7 mb - 0.00 in0.0 mm 0.00 in0.0 mm
06:45 PM 48.0°F8.9°C 44.0°F6.7°C 86% Calm Calm -- 26.36 in892.7 mb - 0.00 in0.0 mm 0.00 in0.0 mm
06:50 PM 48.0°F8.9°C 44.0°F6.7°C 86% 1.2 mph NW1.9 kmh NW 1.2 mph1.9 kmh 26.37 in893.0 mb - 0.00 in0.0 mm 0.00 in0.0 mm
06:55 PM 48.0°F8.9°C 44.0°F6.7°C 86% Calm Calm -- 26.37 in893.0 mb - 0.00 in0.0 mm 0.00 in0.0 mm
07:00 PM 48.0°F8.9°C 43.7°F6.5°C 85% Calm Calm -- 26.37 in893.0 mb - 0.00 in0.0 mm 0.00 in0.0 mm
07:10 PM 48.0°F8.9°C 43.7°F6.5°C 85% Calm Calm -- 26.37 in893.0 mb - 0.00 in0.0 mm 0.00 in0.0 mm
07:15 PM 48.0°F8.9°C 43.7°F6.5°C 85% Calm Calm -- 26.37 in893.0 mb - 0.00 in0.0 mm 0.00 in0.0 mm
07:20 PM 48.0°F8.9°C 44.3°F6.8°C 87% Calm Calm -- 26.37 in893.0 mb - 0.00 in0.0 mm 0.00 in0.0 mm
07:25 PM 48.0°F8.9°C 44.6°F7.0°C 88% Calm Calm -- 26.37 in893.0 mb - 0.00 in0.0 mm 0.00 in0.0 mm
07:30 PM 48.0°F8.9°C 44.6°F7.0°C 88% Calm Calm -- 26.37 in893.0 mb - 0.00 in0.0 mm 0.00 in0.0 mm
07:35 PM 48.0°F8.9°C 44.6°F7.0°C 88% Calm Calm -- 26.37 in893.0 mb - 0.00 in0.0 mm 0.00 in0.0 mm
07:40 PM 47.0°F8.3°C 43.9°F6.6°C 89% Calm Calm -- 26.37 in893.0 mb - 0.00 in0.0 mm 0.00 in0.0 mm
07:45 PM 47.0°F8.3°C 43.9°F6.6°C 89% Calm Calm -- 26.37 in893.0 mb - 0.00 in0.0 mm 0.00 in0.0 mm
07:50 PM 47.0°F8.3°C 43.6°F6.4°C 88% Calm Calm -- 26.37 in893.0 mb - 0.00 in0.0 mm 0.00 in0.0 mm
07:55 PM 47.0°F8.3°C 43.6°F6.4°C 88% Calm Calm -- 26.37 in893.0 mb - 0.00 in0.0 mm 0.00 in0.0 mm
08:00 PM 47.0°F8.3°C 43.6°F6.4°C 88% Calm Calm -- 26.37 in893.0 mb - 0.00 in0.0 mm 0.00 in0.0 mm
08:10 PM 47.0°F8.3°C 43.6°F6.4°C 88% Calm Calm -- 26.38 in893.3 mb - 0.00 in0.0 mm 0.00 in0.0 mm
08:15 PM 47.0°F8.3°C 44.2°F6.8°C 90% Calm Calm -- 26.38 in893.3 mb - 0.00 in0.0 mm 0.00 in0.0 mm
08:20 PM 47.0°F8.3°C 44.5°F6.9°C 91% Calm Calm -- 26.38 in893.3 mb - 0.00 in0.0 mm 0.00 in0.0 mm
08:25 PM 47.0°F8.3°C 44.5°F6.9°C 91% Calm Calm -- 26.38 in893.3 mb - 0.00 in0.0 mm 0.00 in0.0 mm
08:30 PM 47.0°F8.3°C 44.5°F6.9°C 91% Calm Calm -- 26.38 in893.3 mb - 0.00 in0.0 mm 0.00 in0.0 mm
08:35 PM 47.0°F8.3°C 44.5°F6.9°C 91% Calm Calm -- 26.39 in893.7 mb - 0.00 in0.0 mm 0.00 in0.0 mm
08:40 PM 47.0°F8.3°C 44.5°F6.9°C 91% Calm Calm -- 26.38 in893.3 mb - 0.00 in0.0 mm 0.00 in0.0 mm
08:45 PM 46.0°F7.8°C 43.5°F6.4°C 91% Calm Calm -- 26.39 in893.7 mb - 0.00 in0.0 mm 0.00 in0.0 mm
08:50 PM 46.0°F7.8°C 43.5°F6.4°C 91% Calm Calm -- 26.38 in893.3 mb - 0.00 in0.0 mm 0.00 in0.0 mm
08:55 PM 46.0°F7.8°C 43.5°F6.4°C 91% Calm Calm -- 26.39 in893.7 mb - 0.00 in0.0 mm 0.00 in0.0 mm
09:00 PM 46.0°F7.8°C 43.5°F6.4°C 91% Calm Calm -- 26.39 in893.7 mb - 0.00 in0.0 mm 0.00 in0.0 mm
09:10 PM 46.0°F7.8°C 43.2°F6.2°C 90% Calm Calm -- 26.39 in893.7 mb - 0.00 in0.0 mm 0.00 in0.0 mm
09:15 PM 46.0°F7.8°C 43.2°F6.2°C 90% Calm Calm -- 26.38 in893.3 mb - 0.00 in0.0 mm 0.00 in0.0 mm
09:20 PM 46.0°F7.8°C 43.2°F6.2°C 90% Calm Calm -- 26.38 in893.3 mb - 0.00 in0.0 mm 0.00 in0.0 mm
09:25 PM 46.0°F7.8°C 43.2°F6.2°C 90% Calm Calm -- 26.38 in893.3 mb - 0.00 in0.0 mm 0.00 in0.0 mm
09:30 PM 46.0°F7.8°C 42.9°F6.1°C 89% Calm Calm -- 26.39 in893.7 mb - 0.00 in0.0 mm 0.00 in0.0 mm
09:35 PM 46.0°F7.8°C 42.9°F6.1°C 89% Calm Calm -- 26.39 in893.7 mb - 0.00 in0.0 mm 0.00 in0.0 mm
09:40 PM 46.0°F7.8°C 43.2°F6.2°C 90% Calm Calm -- 26.38 in893.3 mb - 0.00 in0.0 mm 0.00 in0.0 mm
09:45 PM 46.0°F7.8°C 43.2°F6.2°C 90% Calm Calm -- 26.38 in893.3 mb - 0.00 in0.0 mm 0.00 in0.0 mm
09:50 PM 46.0°F7.8°C 43.2°F6.2°C 90% Calm Calm -- 26.38 in893.3 mb - 0.00 in0.0 mm 0.00 in0.0 mm
09:55 PM 46.0°F7.8°C 43.2°F6.2°C 90% Calm Calm -- 26.38 in893.3 mb - 0.00 in0.0 mm 0.00 in0.0 mm
10:00 PM 45.0°F7.2°C 42.0°F5.6°C 89% Calm Calm -- 26.39 in893.7 mb - 0.00 in0.0 mm 0.00 in0.0 mm
10:10 PM 45.0°F7.2°C 41.7°F5.4°C 88% Calm Calm -- 26.38 in893.3 mb - 0.00 in0.0 mm 0.00 in0.0 mm
10:15 PM 45.0°F7.2°C 41.7°F5.4°C 88% Calm Calm -- 26.39 in893.7 mb - 0.00 in0.0 mm 0.00 in0.0 mm
10:20 PM 45.0°F7.2°C 42.2°F5.7°C 90% Calm Calm -- 26.38 in893.3 mb - 0.00 in0.0 mm 0.00 in0.0 mm
10:25 PM 45.0°F7.2°C 42.5°F5.8°C 91% Calm Calm -- 26.38 in893.3 mb - 0.00 in0.0 mm 0.00 in0.0 mm
10:30 PM 45.0°F7.2°C 42.8°F6.0°C 92% Calm Calm -- 26.39 in893.7 mb - 0.00 in0.0 mm 0.00 in0.0 mm
10:35 PM 45.0°F7.2°C 42.8°F6.0°C 92% Calm Calm -- 26.38 in893.3 mb - 0.00 in0.0 mm 0.00 in0.0 mm
10:40 PM 45.0°F7.2°C 42.8°F6.0°C 92% Calm Calm -- 26.38 in893.3 mb - 0.00 in0.0 mm 0.00 in0.0 mm
10:45 PM 46.0°F7.8°C 43.8°F6.6°C 92% Calm Calm -- 26.38 in893.3 mb - 0.00 in0.0 mm 0.00 in0.0 mm
10:50 PM 45.0°F7.2°C 42.5°F5.8°C 91% Calm Calm -- 26.38 in893.3 mb - 0.00 in0.0 mm 0.00 in0.0 mm
10:55 PM 45.0°F7.2°C 42.5°F5.8°C 91% Calm Calm -- 26.38 in893.3 mb - 0.00 in0.0 mm 0.00 in0.0 mm
11:00 PM 45.0°F7.2°C 42.5°F5.8°C 91% Calm Calm -- 26.39 in893.7 mb - 0.00 in0.0 mm 0.00 in0.0 mm
11:10 PM 46.0°F7.8°C 43.8°F6.6°C 92% Calm Calm -- 26.38 in893.3 mb - 0.00 in0.0 mm 0.00 in0.0 mm
11:15 PM 46.0°F7.8°C 43.8°F6.6°C 92% Calm Calm -- 26.38 in893.3 mb - 0.00 in0.0 mm 0.00 in0.0 mm
11:20 PM 45.0°F7.2°C 42.8°F6.0°C 92% Calm Calm -- 26.38 in893.3 mb - 0.00 in0.0 mm 0.00 in0.0 mm
11:25 PM 45.0°F7.2°C 43.1°F6.2°C 93% Calm Calm -- 26.38 in893.3 mb - 0.00 in0.0 mm 0.00 in0.0 mm
11:30 PM 45.0°F7.2°C 43.1°F6.2°C 93% Calm Calm -- 26.38 in893.3 mb - 0.00 in0.0 mm 0.00 in0.0 mm
11:35 PM 45.0°F7.2°C 43.1°F6.2°C 93% Calm Calm -- 26.38 in893.3 mb - 0.00 in0.0 mm 0.00 in0.0 mm
11:40 PM 46.0°F7.8°C 44.1°F6.7°C 93% Calm Calm -- 26.37 in893.0 mb - 0.00 in0.0 mm 0.00 in0.0 mm
11:45 PM 46.0°F7.8°C 44.1°F6.7°C 93% Calm Calm -- 26.38 in893.3 mb - 0.00 in0.0 mm 0.00 in0.0 mm
11:50 PM 46.0°F7.8°C 44.1°F6.7°C 93% Calm Calm -- 26.38 in893.3 mb - 0.00 in0.0 mm 0.00 in0.0 mm
11:55 PM 45.0°F7.2°C 43.1°F6.2°C 93% Calm Calm -- 26.38 in893.3 mb - 0.00 in0.0 mm 0.00 in0.0 mm